createdAt,value
2023-05-06T00:00:34.604Z,98673.91
2023-05-06T00:02:40.032Z,98677.31
2023-05-06T00:04:45.123Z,98668.88
2023-05-06T00:06:50.460Z,98673.19
2023-05-06T00:08:55.516Z,98667.00
2023-05-06T00:11:00.705Z,98663.59
2023-05-06T00:13:05.885Z,98660.91
2023-05-06T00:15:12.406Z,98658.84
2023-05-06T00:17:20.661Z,98657.72
2023-05-06T00:19:25.704Z,98663.13
2023-05-06T00:21:31.397Z,98659.84
2023-05-06T00:23:36.456Z,98659.13
2023-05-06T00:25:41.475Z,98651.38
2023-05-06T00:27:46.504Z,98650.50
2023-05-06T00:29:51.539Z,98649.63
2023-05-06T00:31:56.869Z,98653.03
2023-05-06T00:34:04.485Z,98652.38
2023-05-06T00:36:10.445Z,98650.59
2023-05-06T00:38:17.996Z,98651.16
2023-05-06T00:40:23.041Z,98658.03
2023-05-06T00:42:28.814Z,98653.03
2023-05-06T00:44:34.629Z,98649.75
2023-05-06T00:46:39.832Z,98653.81
2023-05-06T00:48:46.171Z,98641.81
2023-05-06T00:50:54.120Z,98642.69
2023-05-06T00:53:01.271Z,98630.94
2023-05-06T00:55:06.603Z,98632.72
2023-05-06T00:57:11.789Z,98637.66
2023-05-06T00:59:17.885Z,98639.28
2023-05-06T01:01:23.289Z,98636.00
2023-05-06T01:03:28.859Z,98641.88
2023-05-06T01:05:48.168Z,98646.97
2023-05-06T01:08:06.160Z,98641.16
2023-05-06T01:10:20.602Z,98646.19
2023-05-06T01:12:35.527Z,98647.97
2023-05-06T01:14:51.893Z,98644.78
2023-05-06T01:17:01.698Z,98645.78
2023-05-06T01:19:12.370Z,98645.03
2023-05-06T01:21:18.628Z,98653.72
2023-05-06T01:23:26.289Z,98653.00
2023-05-06T01:25:32.413Z,98652.19
2023-05-06T01:27:37.425Z,98653.94
2023-05-06T01:29:45.696Z,98653.94
2023-05-06T01:31:55.276Z,98653.84
2023-05-06T01:34:12.998Z,98650.66
2023-05-06T01:36:25.894Z,98657.91
2023-05-06T01:38:43.573Z,98649.75
2023-05-06T01:40:54.442Z,98650.09
2023-05-06T01:43:00.311Z,98642.91
2023-05-06T01:45:08.091Z,98650.72
2023-05-06T01:47:15.956Z,98649.31
2023-05-06T01:49:23.199Z,98654.44
2023-05-06T01:51:28.339Z,98663.09
2023-05-06T01:53:36.094Z,98664.81
2023-05-06T01:55:41.414Z,98657.13
2023-05-06T01:57:46.802Z,98662.91
2023-05-06T01:59:51.839Z,98660.56
2023-05-06T02:01:56.902Z,98661.19
2023-05-06T02:04:02.480Z,98667.47
2023-05-06T02:06:08.047Z,98669.53
2023-05-06T02:08:16.573Z,98666.50
2023-05-06T02:10:26.153Z,98663.31
2023-05-06T02:12:39.087Z,98662.19
2023-05-06T02:14:44.148Z,98663.66
2023-05-06T02:16:49.817Z,98662.72
2023-05-06T02:18:55.500Z,98671.19
2023-05-06T02:21:01.197Z,98663.69
2023-05-06T02:23:06.262Z,98673.56
2023-05-06T02:25:13.037Z,98673.41
2023-05-06T02:27:20.718Z,98671.66
2023-05-06T02:29:26.290Z,98665.44
2023-05-06T02:31:31.881Z,98665.47
2023-05-06T02:33:36.929Z,98664.06
2023-05-06T02:35:42.243Z,98667.69
2023-05-06T02:37:47.256Z,98666.94
2023-05-06T02:39:52.287Z,98667.03
2023-05-06T02:41:57.380Z,98667.00
2023-05-06T02:44:04.989Z,98662.66
2023-05-06T02:46:10.571Z,98667.69
2023-05-06T02:48:16.528Z,98655.47
2023-05-06T02:50:21.868Z,98652.66
2023-05-06T02:52:27.526Z,98655.03
2023-05-06T02:54:32.553Z,98659.88
2023-05-06T02:56:38.135Z,98659.72
2023-05-06T02:58:45.947Z,98656.09
2023-05-06T03:00:53.895Z,98659.41
2023-05-06T03:02:59.059Z,98652.59
2023-05-06T03:05:04.571Z,98658.38
2023-05-06T03:07:10.925Z,98658.41
2023-05-06T03:09:15.991Z,98666.00
2023-05-06T03:11:21.297Z,98667.72
2023-05-06T03:13:26.787Z,98670.38
2023-05-06T03:15:32.248Z,98667.84
2023-05-06T03:17:40.529Z,98667.72
2023-05-06T03:19:45.984Z,98673.44
2023-05-06T03:21:52.180Z,98668.41
2023-05-06T03:23:59.003Z,98672.69
2023-05-06T03:26:06.860Z,98669.19
2023-05-06T03:28:12.484Z,98663.31
2023-05-06T03:30:19.400Z,98672.41
2023-05-06T03:32:26.324Z,98673.28
2023-05-06T03:34:34.117Z,98670.91
2023-05-06T03:36:39.468Z,98674.22
2023-05-06T03:38:45.181Z,98671.72
2023-05-06T03:40:51.087Z,98672.47
2023-05-06T03:42:56.128Z,98679.16
2023-05-06T03:45:02.094Z,98675.88
2023-05-06T03:47:10.129Z,98682.47
2023-05-06T03:49:16.017Z,98679.16
2023-05-06T03:51:27.536Z,98690.19
2023-05-06T03:53:33.815Z,98681.81
2023-05-06T03:55:39.640Z,98682.78
2023-05-06T03:57:44.978Z,98687.91
2023-05-06T03:59:50.328Z,98687.00
2023-05-06T04:01:56.426Z,98690.56
2023-05-06T04:04:02.006Z,98691.41
2023-05-06T04:06:09.182Z,98686.38
2023-05-06T04:08:17.555Z,98690.44
2023-05-06T04:10:24.238Z,98684.56
2023-05-06T04:12:32.062Z,98692.88
2023-05-06T04:14:37.128Z,98693.47
2023-05-06T04:16:43.531Z,98690.78
2023-05-06T04:18:49.767Z,98689.88
2023-05-06T04:20:55.313Z,98693.25
2023-05-06T04:23:00.660Z,98698.44
2023-05-06T04:25:10.395Z,98696.66
2023-05-06T04:27:17.207Z,98698.16
2023-05-06T04:29:23.616Z,98708.09
2023-05-06T04:31:37.116Z,98698.94
2023-05-06T04:33:45.671Z,98700.56
2023-05-06T04:35:59.330Z,98698.84
2023-05-06T04:38:06.319Z,98704.56
2023-05-06T04:40:16.486Z,98706.38
2023-05-06T04:42:23.498Z,98712.25
2023-05-06T04:44:39.002Z,98717.06
2023-05-06T04:46:47.369Z,98724.44
2023-05-06T04:48:53.851Z,98718.22
2023-05-06T04:50:59.771Z,98721.47
2023-05-06T04:53:05.344Z,98726.50
2023-05-06T04:55:13.938Z,98720.53
2023-05-06T04:57:24.755Z,98731.16
2023-05-06T04:59:32.610Z,98731.16
2023-05-06T05:01:39.699Z,98732.81
2023-05-06T05:03:44.810Z,98727.50
2023-05-06T05:05:50.855Z,98736.94
2023-05-06T05:07:58.053Z,98744.84
2023-05-06T05:10:05.888Z,98744.78
2023-05-06T05:12:14.451Z,98749.69
2023-05-06T05:14:24.261Z,98745.97
2023-05-06T05:16:30.368Z,98742.56
2023-05-06T05:18:35.552Z,98745.97
2023-05-06T05:20:47.497Z,98750.69
2023-05-06T05:22:53.034Z,98753.00
2023-05-06T05:24:58.498Z,98747.50
2023-05-06T05:27:03.789Z,98746.50
2023-05-06T05:29:11.638Z,98756.38
2023-05-06T05:31:17.014Z,98752.28
2023-05-06T05:33:22.219Z,98757.38
2023-05-06T05:35:27.424Z,98760.41
2023-05-06T05:37:32.987Z,98756.94
2023-05-06T05:39:38.588Z,98762.94
2023-05-06T05:41:44.463Z,98765.91
2023-05-06T05:43:50.214Z,98773.34
2023-05-06T05:45:57.902Z,98769.69
2023-05-06T05:48:03.073Z,98778.88
2023-05-06T05:50:10.378Z,98771.56
2023-05-06T05:52:16.235Z,98774.00
2023-05-06T05:54:21.350Z,98765.03
2023-05-06T05:56:26.434Z,98773.28
2023-05-06T05:58:32.160Z,98776.91
2023-05-06T06:00:38.473Z,98775.03
2023-05-06T06:02:52.192Z,98782.91
2023-05-06T06:04:59.558Z,98777.38
2023-05-06T06:07:04.771Z,98777.75
2023-05-06T06:09:13.953Z,98784.97
2023-05-06T06:11:19.703Z,98784.28
2023-05-06T06:13:26.561Z,98790.69
2023-05-06T06:15:33.794Z,98782.81
2023-05-06T06:17:39.515Z,98791.56
2023-05-06T06:19:48.661Z,98787.72
2023-05-06T06:21:54.175Z,98793.81
2023-05-06T06:23:59.225Z,98785.44
2023-05-06T06:26:05.843Z,98798.25
2023-05-06T06:28:11.833Z,98797.44
2023-05-06T06:30:18.615Z,98803.50
2023-05-06T06:32:24.381Z,98799.72
2023-05-06T06:34:29.438Z,98803.50
2023-05-06T06:36:40.561Z,98805.69
2023-05-06T06:38:45.649Z,98815.88
2023-05-06T06:40:50.927Z,98817.78
2023-05-06T06:42:56.517Z,98810.06
2023-05-06T06:45:40.254Z,98817.59
2023-05-06T06:47:45.359Z,98819.56
2023-05-06T06:49:50.651Z,98816.56
2023-05-06T06:51:59.302Z,98816.91
2023-05-06T06:54:04.332Z,98818.84
2023-05-06T06:56:14.654Z,98817.06
2023-05-06T06:58:19.679Z,98817.66
2023-05-06T07:00:24.970Z,98818.06
2023-05-06T07:02:30.038Z,98821.63
2023-05-06T07:04:35.622Z,98822.94
2023-05-06T07:06:40.712Z,98832.50
2023-05-06T07:08:48.915Z,98832.44
2023-05-06T07:10:54.052Z,98831.97
2023-05-06T07:12:59.510Z,98831.41
2023-05-06T07:15:06.976Z,98830.13
2023-05-06T07:17:12.088Z,98835.00
2023-05-06T07:19:17.754Z,98831.09
2023-05-06T07:21:23.126Z,98824.94
2023-05-06T07:23:29.456Z,98826.28
2023-05-06T07:25:39.055Z,98826.28
2023-05-06T07:27:44.214Z,98822.25
2023-05-06T07:29:49.558Z,98823.03
2023-05-06T07:31:54.578Z,98829.44
2023-05-06T07:33:59.754Z,98830.97
2023-05-06T07:36:04.798Z,98833.63
2023-05-06T07:38:09.931Z,98836.16
2023-05-06T07:40:16.241Z,98836.53
2023-05-06T07:42:23.841Z,98835.06
2023-05-06T07:44:29.357Z,98834.00
2023-05-06T07:46:34.656Z,98829.75
2023-05-06T07:48:39.821Z,98831.09
2023-05-06T07:50:45.173Z,98827.03
2023-05-06T07:52:50.240Z,98833.19
2023-05-06T07:54:56.848Z,98829.75
2023-05-06T07:57:02.564Z,98842.69
2023-05-06T07:59:10.194Z,98844.69
2023-05-06T08:01:15.722Z,98832.88
2023-05-06T08:03:20.955Z,98835.75
2023-05-06T08:05:26.510Z,98841.41
2023-05-06T08:07:31.612Z,98837.28
2023-05-06T08:09:36.668Z,98837.13
2023-05-06T08:11:41.695Z,98846.72
2023-05-06T08:13:47.309Z,98839.09
2023-05-06T08:15:55.417Z,98842.31
2023-05-06T08:18:13.867Z,98835.97
2023-05-06T08:20:26.102Z,98836.19
2023-05-06T08:22:31.172Z,98840.25
2023-05-06T08:24:36.240Z,98839.53
2023-05-06T08:26:41.772Z,98843.84
2023-05-06T08:28:46.869Z,98840.31
2023-05-06T08:30:54.892Z,98843.47
2023-05-06T08:32:59.928Z,98845.31
2023-05-06T08:35:05.431Z,98846.22
2023-05-06T08:37:10.608Z,98847.22
2023-05-06T08:39:16.512Z,98844.00
2023-05-06T08:41:24.333Z,98844.38
2023-05-06T08:43:32.044Z,98839.59
2023-05-06T08:45:37.123Z,98834.66
2023-05-06T08:47:45.320Z,98840.88
2023-05-06T08:49:50.527Z,98833.03
2023-05-06T08:51:57.217Z,98837.03
2023-05-06T08:54:04.818Z,98834.88
2023-05-06T08:56:11.941Z,98838.09
2023-05-06T08:58:19.052Z,98830.31
2023-05-06T09:00:24.621Z,98833.97
2023-05-06T09:02:30.271Z,98830.66
2023-05-06T09:04:39.860Z,98824.38
2023-05-06T09:06:45.136Z,98823.09
2023-05-06T09:08:50.230Z,98819.06
2023-05-06T09:10:55.251Z,98823.59
2023-05-06T09:13:00.718Z,98832.44
2023-05-06T09:15:06.361Z,98826.78
2023-05-06T09:17:24.512Z,98832.94
2023-05-06T09:19:30.851Z,98834.97
2023-05-06T09:21:39.939Z,98835.41
2023-05-06T09:23:45.116Z,98842.34
2023-05-06T09:25:51.334Z,98839.81
2023-05-06T09:28:07.274Z,98837.78
2023-05-06T09:30:15.069Z,98828.44
2023-05-06T09:32:20.735Z,98826.25
2023-05-06T09:34:25.940Z,98830.28
2023-05-06T09:36:31.969Z,98823.28
2023-05-06T09:38:39.850Z,98825.25
2023-05-06T09:40:44.853Z,98825.75
2023-05-06T09:42:51.969Z,98830.16
2023-05-06T09:45:01.361Z,98821.78
2023-05-06T09:47:07.542Z,98824.81
2023-05-06T09:49:15.251Z,98822.28
2023-05-06T09:51:20.788Z,98828.19
2023-05-06T09:53:28.453Z,98811.25
2023-05-06T09:55:37.436Z,98820.78
2023-05-06T09:57:43.721Z,98823.28
2023-05-06T09:59:50.262Z,98819.38
2023-05-06T10:01:56.762Z,98806.31
2023-05-06T10:04:05.069Z,98809.50
2023-05-06T10:06:12.207Z,98813.59
2023-05-06T10:08:18.753Z,98811.34
2023-05-06T10:10:25.584Z,98801.28
2023-05-06T10:12:33.855Z,98810.88
2023-05-06T10:14:39.583Z,98799.19
2023-05-06T10:16:45.358Z,98799.69
2023-05-06T10:18:52.873Z,98807.94
2023-05-06T10:20:58.420Z,98800.38
2023-05-06T10:23:12.747Z,98796.03
2023-05-06T10:25:32.242Z,98791.22
2023-05-06T10:27:43.827Z,98795.88
2023-05-06T10:29:50.783Z,98791.66
2023-05-06T10:31:58.350Z,98789.53
2023-05-06T10:34:07.810Z,98796.47
2023-05-06T10:36:20.645Z,98784.38
2023-05-06T10:38:32.899Z,98787.41
2023-05-06T10:40:38.126Z,98788.91
2023-05-06T10:42:45.780Z,98784.28
2023-05-06T10:45:01.872Z,98784.38
2023-05-06T10:47:07.068Z,98776.22
2023-05-06T10:49:21.535Z,98779.38
2023-05-06T10:51:31.731Z,98781.19
2023-05-06T10:54:05.732Z,98773.06
2023-05-06T10:56:11.996Z,98768.06
2023-05-06T10:58:21.702Z,98766.66
2023-05-06T11:00:27.390Z,98763.34
2023-05-06T11:02:33.838Z,98763.47
2023-05-06T11:04:39.160Z,98762.69
2023-05-06T11:06:46.596Z,98759.44
2023-05-06T11:09:01.308Z,98762.69
2023-05-06T11:11:52.447Z,98753.44
2023-05-06T11:14:15.836Z,98754.16
2023-05-06T11:16:51.240Z,98743.91
2023-05-06T11:18:58.391Z,98749.63
2023-05-06T11:21:42.573Z,98747.41
2023-05-06T11:24:16.644Z,98745.16
2023-05-06T11:26:21.924Z,98741.88
2023-05-06T11:28:28.345Z,98737.72
2023-05-06T11:30:36.272Z,98735.00
2023-05-06T11:32:42.852Z,98737.31
2023-05-06T11:34:48.272Z,98735.13
2023-05-06T11:37:02.844Z,98741.47
2023-05-06T11:39:11.102Z,98733.00
2023-05-06T11:41:17.089Z,98729.81
2023-05-06T11:43:22.379Z,98731.56
2023-05-06T11:45:27.409Z,98735.94
2023-05-06T11:47:35.608Z,98741.44
2023-05-06T11:49:43.033Z,98725.63
2023-05-06T11:51:50.830Z,98728.28
2023-05-06T11:54:08.457Z,98724.06
2023-05-06T11:56:13.473Z,98730.56
2023-05-06T11:58:22.332Z,98733.47
2023-05-06T12:00:27.483Z,98745.84
2023-05-06T12:02:35.809Z,98746.16
2023-05-06T12:04:42.357Z,98740.69
2023-05-06T12:06:47.895Z,98738.13
2023-05-06T12:08:53.370Z,98734.53
2023-05-06T12:11:01.172Z,98731.22
2023-05-06T12:13:08.652Z,98741.25
2023-05-06T12:15:15.330Z,98727.34
2023-05-06T12:17:21.498Z,98731.16
2023-05-06T12:19:29.500Z,98722.34
2023-05-06T12:21:35.449Z,98722.91
2023-05-06T12:23:52.845Z,98729.31
2023-05-06T12:26:06.766Z,98718.88
2023-05-06T12:28:18.477Z,98722.72
2023-05-06T12:30:34.327Z,98721.25
2023-05-06T12:32:39.629Z,98719.06
2023-05-06T12:34:47.298Z,98713.69
2023-05-06T12:36:52.307Z,98721.66
2023-05-06T12:38:59.742Z,98717.84
2023-05-06T12:41:04.828Z,98709.75
2023-05-06T12:43:10.922Z,98708.19
2023-05-06T12:45:18.885Z,98714.88
2023-05-06T12:47:26.738Z,98710.31
2023-05-06T12:49:54.679Z,98706.47
2023-05-06T12:52:11.196Z,98714.97
2023-05-06T12:54:34.579Z,98706.94
2023-05-06T12:56:39.429Z,98698.81
2023-05-06T12:58:44.442Z,98707.72
2023-05-06T13:00:50.110Z,98707.66
2023-05-06T13:02:55.393Z,98705.22
2023-05-06T13:05:04.051Z,98718.50
2023-05-06T13:07:09.202Z,98718.53
2023-05-06T13:09:15.290Z,98715.94
2023-05-06T13:11:22.525Z,98717.03
2023-05-06T13:13:27.612Z,98720.06
2023-05-06T13:15:34.531Z,98717.63
2023-05-06T13:17:40.018Z,98719.38
2023-05-06T13:19:45.353Z,98715.00
2023-05-06T13:21:53.174Z,98711.06
2023-05-06T13:23:58.206Z,98713.00
2023-05-06T13:26:06.145Z,98705.53
2023-05-06T13:28:11.480Z,98705.38
2023-05-06T13:30:17.318Z,98687.72
2023-05-06T13:32:22.427Z,98687.34
2023-05-06T13:34:28.029Z,98688.41
2023-05-06T13:36:33.386Z,98696.13
2023-05-06T13:38:41.039Z,98698.34
2023-05-06T13:40:50.378Z,98701.44
2023-05-06T13:42:55.627Z,98694.50
2023-05-06T13:45:00.731Z,98702.22
2023-05-06T13:47:06.519Z,98705.38
2023-05-06T13:49:11.584Z,98699.41
2023-05-06T13:51:17.332Z,98696.13
2023-05-06T13:53:23.333Z,98685.81
2023-05-06T13:55:30.986Z,98679.31
2023-05-06T13:57:36.441Z,98675.88
2023-05-06T13:59:41.526Z,98666.94
2023-05-06T14:01:47.444Z,98660.69
2023-05-06T14:03:52.789Z,98666.66
2023-05-06T14:05:58.357Z,98666.72
2023-05-06T14:08:03.679Z,98658.16
2023-05-06T14:10:11.197Z,98662.22
2023-05-06T14:12:19.437Z,98648.13
2023-05-06T14:14:24.462Z,98662.38
2023-05-06T14:16:29.569Z,98656.09
2023-05-06T14:18:36.129Z,98651.22
2023-05-06T14:20:41.502Z,98654.03
2023-05-06T14:22:47.215Z,98655.47
2023-05-06T14:24:52.266Z,98651.41
2023-05-06T14:26:57.726Z,98657.75
2023-05-06T14:29:05.376Z,98664.50
2023-05-06T14:31:10.929Z,98659.44
2023-05-06T14:33:16.207Z,98655.88
2023-05-06T14:35:21.920Z,98653.34
2023-05-06T14:37:27.263Z,98656.06
2023-05-06T14:39:32.785Z,98641.25
2023-05-06T14:41:37.945Z,98647.88
2023-05-06T14:43:42.975Z,98645.16
2023-05-06T14:45:50.621Z,98644.19
2023-05-06T14:47:56.001Z,98652.72
2023-05-06T14:50:01.765Z,98643.84
2023-05-06T14:52:06.936Z,98655.25
2023-05-06T14:54:12.435Z,98643.72
2023-05-06T14:56:17.835Z,98646.56
2023-05-06T14:58:22.847Z,98637.03
2023-05-06T15:00:28.425Z,98628.97
2023-05-06T15:02:36.065Z,98625.66
2023-05-06T15:04:41.361Z,98624.25
2023-05-06T15:06:46.618Z,98623.00
2023-05-06T15:08:52.615Z,98610.81
2023-05-06T15:10:57.703Z,98617.88
2023-05-06T15:13:02.776Z,98609.66
2023-05-06T15:15:10.959Z,98607.47
2023-05-06T15:17:16.521Z,98614.13
2023-05-06T15:19:24.209Z,98627.25
2023-05-06T15:21:29.269Z,98617.00
2023-05-06T15:23:34.540Z,98628.84
2023-05-06T15:25:39.881Z,98631.63
2023-05-06T15:27:45.376Z,98633.59
2023-05-06T15:29:50.446Z,98633.63
2023-05-06T15:31:55.646Z,98633.94
2023-05-06T15:34:01.313Z,98631.31
2023-05-06T15:36:09.942Z,98632.19
2023-05-06T15:38:15.607Z,98627.81
2023-05-06T15:40:23.315Z,98631.97
2023-05-06T15:42:28.457Z,98635.47
2023-05-06T15:44:34.716Z,98635.66
2023-05-06T15:46:39.805Z,98637.69
2023-05-06T15:48:45.736Z,98637.91
2023-05-06T15:50:51.218Z,98636.97
2023-05-06T15:52:58.814Z,98644.88
2023-05-06T15:55:03.856Z,98640.31
2023-05-06T15:57:09.855Z,98635.09
2023-05-06T15:59:15.756Z,98640.50
2023-05-06T16:01:28.691Z,98633.88
2023-05-06T16:03:46.281Z,98636.38
2023-05-06T16:05:51.456Z,98630.16
2023-05-06T16:07:59.057Z,98635.16
2023-05-06T16:10:05.622Z,98630.47
2023-05-06T16:12:10.883Z,98630.00
2023-05-06T16:14:15.977Z,98632.75
2023-05-06T16:16:21.047Z,98627.53
2023-05-06T16:18:26.153Z,98632.31
2023-05-06T16:20:32.757Z,98636.91
2023-05-06T16:22:39.281Z,98633.63
2023-05-06T16:24:47.959Z,98629.53
2023-05-06T16:26:52.941Z,98627.44
2023-05-06T16:28:59.632Z,98625.09
2023-05-06T16:31:05.596Z,98632.31
2023-05-06T16:33:10.953Z,98631.84
2023-05-06T16:35:16.347Z,98629.91
2023-05-06T16:37:21.402Z,98625.00
2023-05-06T16:39:26.420Z,98621.44
2023-05-06T16:41:34.298Z,98623.38
2023-05-06T16:43:39.341Z,98620.00
2023-05-06T16:45:45.723Z,98628.72
2023-05-06T16:47:51.102Z,98630.53
2023-05-06T16:49:56.248Z,98633.31
2023-05-06T16:52:01.742Z,98624.69
2023-05-06T16:54:07.088Z,98636.44
2023-05-06T16:56:12.556Z,98629.25
2023-05-06T16:58:20.155Z,98627.16
2023-05-06T17:00:25.753Z,98622.28
2023-05-06T17:02:31.724Z,98625.78
2023-05-06T17:04:36.807Z,98633.53
2023-05-06T17:06:42.105Z,98640.75
2023-05-06T17:08:47.446Z,98640.91
2023-05-06T17:10:52.478Z,98635.88
2023-05-06T17:12:57.796Z,98636.47
2023-05-06T17:15:06.581Z,98637.81
2023-05-06T17:17:11.706Z,98638.38
2023-05-06T17:19:16.750Z,98634.47
2023-05-06T17:21:21.798Z,98632.97
2023-05-06T17:23:27.321Z,98633.41
2023-05-06T17:25:32.341Z,98628.91
2023-05-06T17:27:37.387Z,98629.94
2023-05-06T17:29:42.407Z,98628.72
2023-05-06T17:31:50.279Z,98627.28
2023-05-06T17:33:55.343Z,98628.13
2023-05-06T17:36:00.536Z,98628.81
2023-05-06T17:38:05.559Z,98629.34
2023-05-06T17:40:13.171Z,98627.19
2023-05-06T17:42:18.262Z,98624.28
2023-05-06T17:44:23.280Z,98622.13
2023-05-06T17:46:28.468Z,98628.81
2023-05-06T17:48:36.220Z,98627.00
2023-05-06T17:50:41.403Z,98629.41
2023-05-06T17:52:46.528Z,98624.88
2023-05-06T17:55:01.501Z,98640.31
2023-05-06T17:57:16.640Z,98638.63
2023-05-06T17:59:25.619Z,98641.00
2023-05-06T18:01:31.775Z,98638.63
2023-05-06T18:03:40.358Z,98638.31
2023-05-06T18:05:45.485Z,98650.66
2023-05-06T18:07:50.626Z,98642.50
2023-05-06T18:09:56.156Z,98647.97
2023-05-06T18:12:01.842Z,98644.69
2023-05-06T18:14:07.351Z,98648.69
2023-05-06T18:16:12.418Z,98643.78
2023-05-06T18:18:17.769Z,98654.72
2023-05-06T18:20:26.084Z,98653.41
2023-05-06T18:22:31.175Z,98651.34
2023-05-06T18:24:37.400Z,98655.22
2023-05-06T18:26:45.334Z,98664.69
2023-05-06T18:28:51.684Z,98667.50
2023-05-06T18:30:57.051Z,98663.22
2023-05-06T18:33:02.097Z,98664.88
2023-05-06T18:35:08.719Z,98673.56
2023-05-06T18:37:16.480Z,98671.53
2023-05-06T18:39:21.708Z,98674.59
2023-05-06T18:41:27.008Z,98670.75
2023-05-06T18:43:32.500Z,98676.13
2023-05-06T18:45:38.187Z,98681.72
2023-05-06T18:47:43.289Z,98686.13
2023-05-06T18:49:48.775Z,98684.97
2023-05-06T18:51:54.515Z,98683.00
2023-05-06T18:54:02.937Z,98690.50
2023-05-06T18:56:10.295Z,98696.81
2023-05-06T18:58:16.391Z,98695.50
2023-05-06T19:00:22.588Z,98696.31
2023-05-06T19:02:27.843Z,98702.41
2023-05-06T19:04:33.686Z,98699.72
2023-05-06T19:06:39.242Z,98704.72
2023-05-06T19:08:44.264Z,98703.75
2023-05-06T19:10:52.338Z,98700.63
2023-05-06T19:12:57.429Z,98706.53
2023-05-06T19:15:02.622Z,98703.25
2023-05-06T19:17:08.064Z,98703.72
2023-05-06T19:19:13.249Z,98702.25
2023-05-06T19:21:18.858Z,98714.25
2023-05-06T19:23:23.872Z,98708.13
2023-05-06T19:25:29.027Z,98715.03
2023-05-06T19:27:36.870Z,98713.84
2023-05-06T19:29:41.971Z,98711.84
2023-05-06T19:31:47.241Z,98713.31
2023-05-06T19:33:52.356Z,98713.94
2023-05-06T19:35:57.797Z,98710.78
2023-05-06T19:38:03.029Z,98718.66
2023-05-06T19:40:10.226Z,98709.94
2023-05-06T19:42:15.341Z,98715.31
2023-05-06T19:44:22.931Z,98718.91
2023-05-06T19:46:28.217Z,98714.78
2023-05-06T19:48:36.810Z,98710.69
2023-05-06T19:50:42.000Z,98720.69
2023-05-06T19:52:48.016Z,98727.56
2023-05-06T19:54:53.794Z,98723.59
2023-05-06T19:57:00.368Z,98720.97
2023-05-06T19:59:05.490Z,98726.38
2023-05-06T20:01:13.446Z,98727.31
2023-05-06T20:03:18.617Z,98733.38
2023-05-06T20:05:24.110Z,98729.19
2023-05-06T20:07:29.200Z,98732.88
2023-05-06T20:09:34.244Z,98731.25
2023-05-06T20:11:39.995Z,98727.81
2023-05-06T20:13:44.979Z,98730.66
2023-05-06T20:15:50.234Z,98731.47
2023-05-06T20:17:58.263Z,98727.34
2023-05-06T20:20:04.848Z,98731.09
2023-05-06T20:22:10.200Z,98736.28
2023-05-06T20:24:16.360Z,98739.13
2023-05-06T20:26:23.910Z,98735.06
2023-05-06T20:28:31.448Z,98732.06
2023-05-06T20:30:37.804Z,98734.16
2023-05-06T20:32:43.849Z,98728.25
2023-05-06T20:34:51.536Z,98728.31
2023-05-06T20:36:57.030Z,98730.84
2023-05-06T20:39:02.477Z,98735.94
2023-05-06T20:41:07.536Z,98738.19
2023-05-06T20:43:12.685Z,98732.28
2023-05-06T20:45:17.888Z,98738.81
2023-05-06T20:47:22.920Z,98744.75
2023-05-06T20:49:28.067Z,98741.50
2023-05-06T20:51:35.705Z,98744.69
2023-05-06T20:53:41.165Z,98754.63
2023-05-06T20:55:46.199Z,98747.28
2023-05-06T20:57:51.331Z,98752.22
2023-05-06T20:59:56.709Z,98748.94
2023-05-06T21:02:01.741Z,98751.91
2023-05-06T21:04:07.245Z,98748.53
2023-05-06T21:06:12.728Z,98749.50
2023-05-06T21:08:20.472Z,98749.50
2023-05-06T21:10:25.653Z,98746.06
2023-05-06T21:12:30.707Z,98749.59
2023-05-06T21:14:35.759Z,98744.97
2023-05-06T21:16:43.275Z,98742.38
2023-05-06T21:18:48.471Z,98751.16
2023-05-06T21:20:53.596Z,98751.16
2023-05-06T21:22:58.609Z,98754.88
2023-05-06T21:25:06.610Z,98745.13
2023-05-06T21:27:11.652Z,98756.31
2023-05-06T21:29:16.690Z,98751.84
2023-05-06T21:31:23.272Z,98749.22
2023-05-06T21:33:28.377Z,98751.56
2023-05-06T21:35:33.671Z,98749.50
2023-05-06T21:37:38.691Z,98746.06
2023-05-06T21:39:43.738Z,98746.06
2023-05-06T21:41:51.340Z,98745.41
2023-05-06T21:43:56.735Z,98743.47
2023-05-06T21:46:01.788Z,98749.38
2023-05-06T21:48:07.459Z,98745.41
2023-05-06T21:50:13.913Z,98738.94
2023-05-06T21:52:18.961Z,98742.59
2023-05-06T21:54:24.764Z,98738.56
2023-05-06T21:56:30.084Z,98733.75
2023-05-06T21:58:37.673Z,98738.84
2023-05-06T22:00:42.696Z,98737.44
2023-05-06T22:02:48.376Z,98732.56
2023-05-06T22:04:53.481Z,98732.78
2023-05-06T22:06:59.785Z,98737.59
2023-05-06T22:09:09.576Z,98738.16
2023-05-06T22:11:15.261Z,98744.72
2023-05-06T22:13:21.572Z,98744.03
2023-05-06T22:15:30.549Z,98743.34
2023-05-06T22:17:36.029Z,98746.06
2023-05-06T22:19:41.792Z,98747.88
2023-05-06T22:21:47.540Z,98744.44
2023-05-06T22:23:52.791Z,98739.13
2023-05-06T22:25:59.165Z,98745.81
2023-05-06T22:28:05.799Z,98739.97
2023-05-06T22:30:13.615Z,98738.25
2023-05-06T22:32:22.079Z,98727.59
2023-05-06T22:34:27.185Z,98737.59
2023-05-06T22:36:33.888Z,98732.78
2023-05-06T22:38:39.075Z,98738.53
2023-05-06T22:40:44.083Z,98743.06
2023-05-06T22:42:49.746Z,98739.28
2023-05-06T22:44:54.904Z,98730.91
2023-05-06T22:47:00.500Z,98729.22
2023-05-06T22:49:08.126Z,98733.59
2023-05-06T22:51:13.523Z,98735.44
2023-05-06T22:53:18.806Z,98740.69
2023-05-06T22:55:24.309Z,98746.53
2023-05-06T22:57:29.988Z,98744.09
2023-05-06T22:59:35.066Z,98745.13
2023-05-06T23:01:40.138Z,98742.00
2023-05-06T23:03:45.941Z,98735.56
2023-05-06T23:05:53.741Z,98736.66
2023-05-06T23:07:59.291Z,98736.47
2023-05-06T23:10:04.770Z,98734.25
2023-05-06T23:12:09.946Z,98736.38
2023-05-06T23:14:15.318Z,98740.06
2023-05-06T23:16:21.157Z,98742.88
2023-05-06T23:18:26.706Z,98740.53
2023-05-06T23:20:32.584Z,98737.13
2023-05-06T23:22:40.251Z,98735.34
2023-05-06T23:24:46.060Z,98735.13
2023-05-06T23:26:52.173Z,98731.06
2023-05-06T23:28:57.510Z,98737.88
2023-05-06T23:31:02.610Z,98738.88
2023-05-06T23:33:07.887Z,98746.88
2023-05-06T23:35:13.356Z,98743.47
2023-05-06T23:37:18.705Z,98744.41
2023-05-06T23:39:26.605Z,98734.28
2023-05-06T23:41:31.604Z,98741.69
2023-05-06T23:43:37.053Z,98747.41
2023-05-06T23:45:42.070Z,98741.31
2023-05-06T23:47:47.673Z,98741.22
2023-05-06T23:49:53.147Z,98741.97
2023-05-06T23:51:58.216Z,98751.09
2023-05-06T23:54:03.528Z,98743.38
2023-05-06T23:56:11.385Z,98749.44
2023-05-06T23:58:16.511Z,98754.44
